KAMW/AMW METAR and TAF weather

Enter ICAO airport designator
Station Type Date Time Source
KAMW METAR 2021/05/12 04:53 UTC NOAA

KAMW 120453Z AUTO 00000KT 10SM CLR 05/M01 A3040 RMK AO2 SLP294 T00501011


Station Type Date Time Source
KAMW Decoded METAR 2021/05/12 04:53 UTC NOAA

AMES MUNICIPAL AIRPORT, IA, United States (KAMW) 41-59N 93-37W 279M
May 12, 2021 - 12:53 AM EDT / 2021.05.12 0453 UTC
Wind: Calm:0
Visibility: 10 mile(s):0
Sky conditions: clear
Temperature: 41.0 F (5.0 C)
Dew Point: 30.0 F (-1.1 C)
Relative Humidity: 64%
Pressure (altimeter): 30.4 in. Hg (1029 hPa)
ob: KAMW 120453Z AUTO 00000KT 10SM CLR 05/M01 A3040 RMK AO2 SLP294 T00501011
cycle: 5

Station Type Date Time Source
KAMW TAF UTC NOAA

Error!

Example: see airport list